createdAt,value
2019-05-20T00:00:57.139Z,71.2
2019-05-20T00:05:59.761Z,71.5
2019-05-20T00:11:02.066Z,72.6
2019-05-20T00:16:04.496Z,73.1
2019-05-20T00:21:06.913Z,73.4
2019-05-20T00:26:09.378Z,73.9
2019-05-20T00:31:11.810Z,74.5
2019-05-20T00:36:14.297Z,75.2
2019-05-20T00:41:16.658Z,75.8
2019-05-20T00:46:19.137Z,76.8
2019-05-20T00:51:21.619Z,77.9
2019-05-20T00:56:23.986Z,79.1
2019-05-20T01:01:26.462Z,80
2019-05-20T01:11:31.295Z,82.1
2019-05-20T01:16:33.739Z,83.6
2019-05-20T01:21:36.195Z,85.4
2019-05-20T01:26:38.630Z,86.1
2019-05-20T01:31:41.084Z,86.9
2019-05-20T01:36:43.516Z,87.7
2019-05-20T01:41:45.943Z,87.7
2019-05-20T01:46:48.395Z,88.1
2019-05-20T01:51:50.817Z,89
2019-05-20T01:56:53.264Z,89.9
2019-05-20T02:01:55.700Z,90.3
2019-05-20T02:06:58.162Z,90.6
2019-05-20T02:12:00.573Z,91.2
2019-05-20T02:17:03.025Z,91.6
2019-05-20T02:22:05.483Z,91.8
2019-05-20T02:27:07.978Z,92.2
2019-05-20T02:32:10.358Z,92.4
2019-05-20T02:37:12.826Z,92.6
2019-05-20T02:42:15.236Z,92.6
2019-05-20T02:47:17.659Z,92.9
2019-05-20T02:52:20.172Z,93.1
2019-05-20T02:57:22.748Z,93.5
2019-05-20T03:02:25.022Z,93.9
2019-05-20T03:07:27.433Z,94.1
2019-05-20T03:12:29.885Z,94.7
2019-05-20T03:17:32.338Z,95.4
2019-05-20T03:22:34.754Z,95.7
2019-05-20T03:27:37.197Z,95.4
2019-05-20T03:32:39.659Z,95.9
2019-05-20T03:37:42.073Z,96.1
2019-05-20T03:42:44.516Z,96.7
2019-05-20T03:47:46.951Z,97.3
2019-05-20T03:52:49.424Z,97.3
2019-05-20T03:57:51.839Z,97.6
2019-05-20T04:02:54.283Z,97.8
2019-05-20T04:07:56.746Z,98.2
2019-05-20T04:12:59.149Z,98.8
2019-05-20T04:18:01.614Z,99.2
2019-05-20T04:23:04.029Z,99.2
2019-05-20T04:28:06.579Z,99.4
2019-05-20T04:33:08.984Z,99.6
2019-05-20T04:38:11.387Z,99.9
2019-05-20T04:43:13.922Z,99.9
2019-05-20T04:48:16.263Z,99.9
2019-05-20T04:53:18.726Z,99.9
2019-05-20T04:58:21.162Z,99.9
2019-05-20T05:03:23.681Z,99.9
2019-05-20T05:08:26.028Z,99.9
2019-05-20T05:13:28.521Z,99.9
2019-05-20T05:18:30.891Z,99.9
2019-05-20T05:23:33.336Z,99.9
2019-05-20T05:28:35.783Z,99.9
2019-05-20T05:33:38.361Z,99.9
2019-05-20T05:38:40.675Z,99.9
2019-05-20T05:43:43.175Z,99.9
2019-05-20T05:48:45.516Z,99.9
2019-05-20T05:53:47.978Z,99.9
2019-05-20T05:58:50.417Z,99.9
2019-05-20T06:03:52.862Z,99.9
2019-05-20T06:08:55.293Z,99.9
2019-05-20T06:13:57.805Z,99.9
2019-05-20T06:19:00.221Z,99.9
2019-05-20T06:24:02.615Z,99.9
2019-05-20T06:29:05.060Z,99.9
2019-05-20T06:34:07.511Z,99.9
2019-05-20T06:39:09.948Z,99.9
2019-05-20T06:44:12.420Z,99.9
2019-05-20T06:49:14.844Z,99.9
2019-05-20T06:54:17.281Z,99.9
2019-05-20T06:59:19.723Z,99.9
2019-05-20T07:04:22.159Z,99.9
2019-05-20T07:09:24.608Z,99.9
2019-05-20T07:19:29.488Z,99.9
2019-05-20T07:24:31.901Z,99.9
2019-05-20T07:29:34.621Z,99.9
2019-05-20T07:34:36.906Z,99.9
2019-05-20T07:39:39.225Z,99.9
2019-05-20T07:44:41.662Z,99.9
2019-05-20T07:49:44.115Z,99.9
2019-05-20T07:54:46.560Z,99.9
2019-05-20T07:59:48.984Z,99.9
2019-05-20T08:04:51.532Z,99.9
2019-05-20T08:09:53.879Z,99.9
2019-05-20T08:14:56.317Z,99.9
2019-05-20T08:19:58.739Z,99.9
2019-05-20T08:25:01.208Z,99.9
2019-05-20T08:30:03.832Z,99.9
2019-05-20T08:35:06.218Z,99.9
2019-05-20T08:40:08.527Z,99.9
2019-05-20T08:45:10.973Z,99.9
2019-05-20T08:50:16.049Z,99.9
2019-05-20T08:55:15.906Z,99.9
2019-05-20T09:00:23.174Z,99.9
2019-05-20T09:05:20.716Z,99.9
2019-05-20T09:10:23.176Z,99.9
2019-05-20T09:15:25.728Z,99.2
2019-05-20T09:20:28.051Z,98.6
2019-05-20T09:25:30.491Z,99.3
2019-05-20T09:30:32.932Z,99.4
2019-05-20T09:35:35.370Z,99.5
2019-05-20T09:40:37.829Z,99.8
2019-05-20T09:45:40.282Z,99.9
2019-05-20T09:50:42.684Z,99.9
2019-05-20T09:55:45.211Z,99.9
2019-05-20T10:00:47.608Z,99.9
2019-05-20T10:05:50.063Z,99.9
2019-05-20T10:10:52.469Z,99.9
2019-05-20T10:15:54.887Z,99.9
2019-05-20T10:20:57.454Z,99.9
2019-05-20T10:25:59.779Z,99.9
2019-05-20T10:31:02.271Z,99.9
2019-05-20T10:36:04.678Z,99.9
2019-05-20T10:41:07.092Z,99.9
2019-05-20T10:46:09.529Z,99.9
2019-05-20T10:51:12.049Z,99.9
2019-05-20T10:56:14.681Z,99.9
2019-05-20T11:01:16.913Z,99.9
2019-05-20T11:06:19.314Z,99.9
2019-05-20T11:11:21.797Z,99.9
2019-05-20T11:16:24.199Z,99.9
2019-05-20T11:21:26.642Z,99.9
2019-05-20T11:26:29.067Z,99.9
2019-05-20T11:31:31.509Z,99.9
2019-05-20T11:36:33.945Z,99.9
2019-05-20T11:41:53.629Z,99.9
2019-05-20T11:46:38.916Z,99.9
2019-05-20T11:51:41.277Z,99.9
2019-05-20T11:56:43.727Z,99.9
2019-05-20T12:01:46.141Z,99.9
2019-05-20T12:06:48.664Z,99.9
2019-05-20T12:11:51.194Z,99.9
2019-05-20T12:16:53.468Z,99.9
2019-05-20T12:21:55.926Z,99.9
2019-05-20T12:26:58.404Z,99.9
2019-05-20T12:32:03.416Z,99.9
2019-05-20T12:37:03.261Z,99.9
2019-05-20T12:42:05.687Z,99.9
2019-05-20T12:47:08.387Z,99.9
2019-05-20T12:52:10.625Z,99.9
2019-05-20T12:57:13.012Z,99.9
2019-05-20T13:02:17.354Z,99.9
2019-05-20T13:07:17.867Z,99.9
2019-05-20T13:12:20.325Z,99.9
2019-05-20T13:17:22.825Z,99.9
2019-05-20T13:22:25.194Z,99.9
2019-05-20T13:27:27.645Z,99.9
2019-05-20T13:32:30.085Z,99.9
2019-05-20T13:37:32.561Z,99.9
2019-05-20T13:42:34.970Z,99.9
2019-05-20T13:47:37.409Z,99.9
2019-05-20T13:52:39.849Z,99.9
2019-05-20T13:57:42.352Z,99.9
2019-05-20T14:02:44.861Z,99.9
2019-05-20T14:07:47.178Z,99.9
2019-05-20T14:12:49.704Z,99.9
2019-05-20T14:17:52.196Z,99.9
2019-05-20T14:22:54.552Z,99.9
2019-05-20T14:27:56.965Z,99.9
2019-05-20T14:32:59.380Z,99.9
2019-05-20T14:43:04.251Z,99.9
2019-05-20T14:48:06.947Z,99.9
2019-05-20T14:53:09.201Z,99.9
2019-05-20T14:58:11.576Z,99.9
2019-05-20T15:03:14.037Z,99.9
2019-05-20T15:08:16.463Z,99.9
2019-05-20T15:13:18.944Z,99.9
2019-05-20T15:18:21.350Z,99.9
2019-05-20T15:23:23.836Z,99.9
2019-05-20T15:28:26.250Z,99.9
2019-05-20T15:33:28.717Z,99.9
2019-05-20T15:38:31.115Z,99.9
2019-05-20T15:43:33.558Z,99.9
2019-05-20T15:48:36.041Z,99.9
2019-05-20T15:53:38.414Z,99.9
2019-05-20T15:58:40.866Z,99.9
2019-05-20T16:03:43.301Z,99.9
2019-05-20T16:08:45.789Z,99.9
2019-05-20T16:13:48.187Z,99.9
2019-05-20T16:18:50.622Z,99.9
2019-05-20T16:23:53.095Z,99.9
2019-05-20T16:28:55.513Z,99.9
2019-05-20T16:33:59.561Z,99.9
2019-05-20T16:39:00.475Z,99.9
2019-05-20T16:44:02.875Z,99.9
2019-05-20T16:49:05.366Z,99.9
2019-05-20T16:54:07.763Z,99.9
2019-05-20T16:59:10.164Z,99.9
2019-05-20T17:04:12.600Z,99.9
2019-05-20T17:09:15.038Z,99.9
2019-05-20T17:14:17.497Z,99.9
2019-05-20T17:19:19.928Z,99.9
2019-05-20T17:24:23.296Z,99.9
2019-05-20T17:29:24.837Z,99.9
2019-05-20T17:34:27.243Z,99.9
2019-05-20T17:39:29.691Z,99.9
2019-05-20T17:44:32.262Z,99.9
2019-05-20T17:49:34.574Z,99.9
2019-05-20T17:54:37.022Z,99.9
2019-05-20T17:59:39.454Z,99.9
2019-05-20T18:04:41.881Z,99.9
2019-05-20T18:09:44.441Z,99.9
2019-05-20T18:14:46.806Z,99.9
2019-05-20T18:19:49.301Z,99.9
2019-05-20T18:24:51.767Z,99.9
2019-05-20T18:29:54.390Z,99.9
2019-05-20T18:34:56.572Z,99.9
2019-05-20T18:40:12.702Z,99.9
2019-05-20T18:45:01.439Z,99.9
2019-05-20T18:50:03.856Z,99.9
2019-05-20T18:55:06.306Z,99.9
2019-05-20T19:00:08.735Z,99.9
2019-05-20T19:05:11.182Z,99.9
2019-05-20T19:10:13.710Z,99.9
2019-05-20T19:15:16.063Z,99.9
2019-05-20T19:20:18.489Z,99.9
2019-05-20T19:25:20.962Z,99.9
2019-05-20T19:30:23.454Z,99.9
2019-05-20T19:35:26.464Z,99.9
2019-05-20T19:40:28.343Z,99.9
2019-05-20T19:45:30.731Z,99.9
2019-05-20T19:50:33.136Z,99.9
2019-05-20T19:55:35.589Z,99.9
2019-05-20T20:00:38.031Z,99.9
2019-05-20T20:05:40.474Z,99.9
2019-05-20T20:10:42.904Z,99.9
2019-05-20T20:15:45.353Z,99.9
2019-05-20T20:20:48.107Z,99.9
2019-05-20T20:25:50.269Z,99.9
2019-05-20T20:30:52.730Z,99.9
2019-05-20T20:35:55.093Z,99.9
2019-05-20T20:40:57.534Z,99.9
2019-05-20T20:45:59.972Z,99.9
2019-05-20T20:51:02.458Z,99.9
2019-05-20T20:56:04.868Z,99.9
2019-05-20T21:01:07.295Z,99.9
2019-05-20T21:06:09.734Z,99.9
2019-05-20T21:11:12.176Z,99.9
2019-05-20T21:16:14.625Z,99.9
2019-05-20T21:21:17.244Z,99.9
2019-05-20T21:26:19.494Z,99.9
2019-05-20T21:31:21.933Z,99.9
2019-05-20T21:36:24.375Z,99.9
2019-05-20T21:41:26.874Z,99.9
2019-05-20T21:46:29.270Z,99.9
2019-05-20T21:51:31.722Z,99.9
2019-05-20T21:56:34.145Z,99.9
2019-05-20T22:01:36.637Z,99.9
2019-05-20T22:06:39.309Z,99.9
2019-05-20T22:11:41.493Z,99.9
2019-05-20T22:16:43.944Z,99.9
2019-05-20T22:21:46.364Z,99.9
2019-05-20T22:26:48.799Z,99.9
2019-05-20T22:31:51.245Z,99.9
2019-05-20T22:36:53.699Z,99.9
2019-05-20T22:41:56.102Z,99.9
2019-05-20T22:46:58.545Z,99.9
2019-05-20T22:52:01.045Z,99.9
2019-05-20T22:57:03.459Z,99.9
2019-05-20T23:02:05.947Z,99.9
2019-05-20T23:07:08.366Z,99.9
2019-05-20T23:12:11.014Z,99.9
2019-05-20T23:17:13.201Z,99.9
2019-05-20T23:22:15.666Z,99.9
2019-05-20T23:27:18.088Z,99.9
2019-05-20T23:32:20.548Z,99.9
2019-05-20T23:37:22.995Z,99.9
2019-05-20T23:42:25.417Z,99.9
2019-05-20T23:47:27.835Z,99.9
2019-05-20T23:52:30.271Z,99.9
2019-05-20T23:57:32.744Z,99.9
